createdAt,value
2022-10-17T00:01:11.653Z,23.98
2022-10-17T00:03:40.726Z,25.20
2022-10-17T00:06:11.846Z,21.83
2022-10-17T00:08:41.564Z,21.98
2022-10-17T00:11:14.965Z,24.15
2022-10-17T00:13:42.947Z,22.70
2022-10-17T00:16:10.790Z,23.85
2022-10-17T00:18:39.063Z,23.27
2022-10-17T00:21:06.840Z,22.45
2022-10-17T00:23:35.557Z,22.77
2022-10-17T00:26:05.580Z,23.00
2022-10-17T00:28:34.030Z,25.13
2022-10-17T00:31:03.667Z,22.38
2022-10-17T00:33:33.149Z,20.92
2022-10-17T00:36:10.522Z,22.00
2022-10-17T00:38:38.599Z,21.48
2022-10-17T00:41:10.107Z,23.17
2022-10-17T00:43:57.335Z,24.50
2022-10-17T00:46:28.305Z,23.13
2022-10-17T00:48:58.043Z,24.67
2022-10-17T00:51:47.001Z,24.70
2022-10-17T00:54:17.854Z,25.42
2022-10-17T00:56:48.113Z,25.55
2022-10-17T00:59:17.084Z,24.33
2022-10-17T01:02:00.669Z,24.92
2022-10-17T01:04:28.901Z,25.95
2022-10-17T01:06:56.768Z,24.60
2022-10-17T01:09:25.580Z,24.27
2022-10-17T01:12:26.256Z,26.25
2022-10-17T01:15:32.774Z,24.77
2022-10-17T01:18:26.330Z,24.25
2022-10-17T01:21:17.630Z,23.92
2022-10-17T01:24:22.769Z,24.83
2022-10-17T01:27:15.823Z,25.42
2022-10-17T01:30:21.086Z,27.10
2022-10-17T01:32:59.439Z,24.50
2022-10-17T01:36:12.504Z,25.27
2022-10-17T01:38:50.048Z,23.77
2022-10-17T01:41:50.183Z,25.17
2022-10-17T01:44:26.745Z,30.08
2022-10-17T01:47:00.766Z,31.88
2022-10-17T01:49:30.149Z,28.58
2022-10-17T01:52:03.763Z,29.92
2022-10-17T01:54:37.328Z,27.88
2022-10-17T01:57:10.073Z,30.30
2022-10-17T01:59:44.364Z,25.70
2022-10-17T02:02:15.089Z,25.02
2022-10-17T02:04:43.139Z,26.73
2022-10-17T02:07:12.516Z,26.20
2022-10-17T02:09:41.057Z,27.85
2022-10-17T02:12:16.922Z,25.95
2022-10-17T02:14:51.183Z,26.02
2022-10-17T02:17:32.022Z,28.65
2022-10-17T02:20:10.335Z,30.65
2022-10-17T02:22:48.861Z,28.85
2022-10-17T02:25:47.913Z,31.08
2022-10-17T02:28:24.769Z,27.50
2022-10-17T02:31:03.203Z,26.90
2022-10-17T02:33:40.345Z,27.70
2022-10-17T02:36:15.999Z,27.50
2022-10-17T02:38:44.509Z,26.05
2022-10-17T02:41:16.347Z,26.67
2022-10-17T02:43:46.179Z,27.40
2022-10-17T02:46:21.582Z,26.90
2022-10-17T02:48:56.063Z,28.80
2022-10-17T02:51:33.771Z,27.85
2022-10-17T02:54:20.860Z,25.70
2022-10-17T02:56:54.226Z,27.13
2022-10-17T02:59:23.876Z,28.33
2022-10-17T03:01:52.703Z,25.85
2022-10-17T03:04:21.319Z,27.35
2022-10-17T03:06:50.052Z,29.27
2022-10-17T03:09:19.128Z,26.60
2022-10-17T03:11:47.402Z,26.05
2022-10-17T03:14:16.424Z,26.67
2022-10-17T03:16:44.761Z,26.08
2022-10-17T03:19:12.526Z,29.30
2022-10-17T03:21:41.394Z,26.95
2022-10-17T03:24:09.046Z,28.35
2022-10-17T03:26:37.370Z,27.58
2022-10-17T03:29:05.652Z,29.73
2022-10-17T03:31:36.943Z,28.90
2022-10-17T03:34:06.527Z,32.83
2022-10-17T03:36:34.875Z,30.55
2022-10-17T03:39:02.864Z,30.02
2022-10-17T03:41:31.322Z,28.60
2022-10-17T03:43:59.339Z,27.88
2022-10-17T03:46:28.056Z,27.90
2022-10-17T03:48:58.003Z,26.83
2022-10-17T03:51:27.296Z,26.67
2022-10-17T03:54:02.003Z,26.20
2022-10-17T03:56:32.542Z,33.40
2022-10-17T03:59:04.313Z,28.65
2022-10-17T04:01:35.357Z,29.35
2022-10-17T04:04:03.804Z,30.00
2022-10-17T04:06:36.147Z,31.02
2022-10-17T04:09:05.819Z,27.95
2022-10-17T04:11:41.662Z,28.90
2022-10-17T04:14:11.179Z,30.27
2022-10-17T04:16:41.018Z,28.30
2022-10-17T04:19:16.816Z,28.92
2022-10-17T04:21:48.526Z,28.15
2022-10-17T04:24:16.917Z,26.65
2022-10-17T04:26:56.578Z,30.95
2022-10-17T04:29:28.373Z,28.58
2022-10-17T04:32:06.449Z,28.02
2022-10-17T04:34:41.255Z,28.00
2022-10-17T04:37:10.010Z,28.27
2022-10-17T04:39:38.615Z,28.92
2022-10-17T04:42:06.591Z,29.25
2022-10-17T04:44:35.972Z,29.25
2022-10-17T04:47:04.703Z,26.55
2022-10-17T04:49:32.950Z,27.25
2022-10-17T04:52:09.151Z,28.58
2022-10-17T04:54:45.331Z,28.15
2022-10-17T04:57:15.091Z,30.58
2022-10-17T04:59:50.375Z,30.75
2022-10-17T05:02:25.130Z,29.67
2022-10-17T05:04:53.746Z,28.65
2022-10-17T05:07:22.489Z,29.00
2022-10-17T05:10:11.954Z,28.88
2022-10-17T05:12:42.914Z,36.17
2022-10-17T05:15:11.024Z,31.55
2022-10-17T05:17:39.484Z,31.02
2022-10-17T05:20:08.539Z,30.45
2022-10-17T05:22:39.786Z,28.20
2022-10-17T05:25:14.815Z,28.88
2022-10-17T05:27:46.346Z,27.92
2022-10-17T05:30:16.811Z,26.67
2022-10-17T05:32:45.589Z,27.95
2022-10-17T05:35:14.227Z,28.00
2022-10-17T05:37:43.191Z,26.95
2022-10-17T05:40:11.840Z,29.75
2022-10-17T05:42:48.142Z,29.75
2022-10-17T05:45:18.808Z,30.08
2022-10-17T05:47:47.553Z,39.03
2022-10-17T05:50:17.077Z,52.72
2022-10-17T05:53:08.433Z,33.08
2022-10-17T05:55:42.183Z,36.30
2022-10-17T05:58:17.731Z,33.50
2022-10-17T06:01:04.879Z,30.75
2022-10-17T06:03:34.745Z,31.60
2022-10-17T06:06:13.490Z,34.20
2022-10-17T06:08:45.202Z,31.55
2022-10-17T06:11:16.705Z,33.70
2022-10-17T06:13:45.321Z,35.80
2022-10-17T06:16:19.801Z,36.85
2022-10-17T06:21:23.925Z,40.65
2022-10-17T06:23:53.739Z,37.92
2022-10-17T06:26:36.108Z,35.67
2022-10-17T06:29:06.809Z,33.05
2022-10-17T06:31:39.245Z,31.38
2022-10-17T06:34:08.008Z,31.10
2022-10-17T06:36:35.858Z,29.58
2022-10-17T06:39:05.443Z,28.80
2022-10-17T06:41:40.149Z,28.13
2022-10-17T06:44:11.909Z,28.80
2022-10-17T06:47:00.542Z,28.60
2022-10-17T06:49:29.892Z,26.60
2022-10-17T06:52:15.291Z,27.48
2022-10-17T06:54:53.537Z,25.98
2022-10-17T06:57:40.211Z,26.70
2022-10-17T07:00:27.408Z,27.20
2022-10-17T07:02:58.014Z,25.13
2022-10-17T07:05:26.774Z,25.52
2022-10-17T07:07:54.622Z,26.48
2022-10-17T07:10:23.118Z,25.45
2022-10-17T07:12:51.054Z,25.77
2022-10-17T07:15:18.947Z,25.17
2022-10-17T07:17:51.245Z,26.00
2022-10-17T07:20:20.882Z,25.90
2022-10-17T07:22:49.551Z,23.55
2022-10-17T07:25:18.214Z,25.40
2022-10-17T07:27:52.803Z,24.15
2022-10-17T07:30:23.068Z,24.45
2022-10-17T07:33:04.873Z,24.38
2022-10-17T07:35:34.225Z,23.13
2022-10-17T07:38:02.409Z,23.00
2022-10-17T07:40:30.584Z,23.80
2022-10-17T07:42:58.582Z,25.00
2022-10-17T07:45:28.302Z,23.52
2022-10-17T07:48:00.114Z,23.48
2022-10-17T07:50:29.670Z,24.63
2022-10-17T07:52:57.434Z,23.88
2022-10-17T07:55:26.038Z,22.95
2022-10-17T07:57:54.697Z,23.17
2022-10-17T08:00:23.113Z,22.05
2022-10-17T08:02:51.054Z,22.70
2022-10-17T08:05:19.674Z,22.98
2022-10-17T08:07:47.876Z,23.98
2022-10-17T08:10:16.922Z,22.23
2022-10-17T08:12:44.837Z,22.50
2022-10-17T08:15:13.220Z,22.13
2022-10-17T08:17:41.085Z,22.45
2022-10-17T08:20:10.424Z,22.95
2022-10-17T08:22:38.285Z,22.58
2022-10-17T08:25:07.685Z,23.42
2022-10-17T08:27:35.639Z,21.73
2022-10-17T08:30:04.415Z,23.35
2022-10-17T08:32:32.982Z,22.13
2022-10-17T08:35:01.673Z,21.08
2022-10-17T08:37:31.634Z,21.58
2022-10-17T08:40:00.671Z,21.25
2022-10-17T08:42:40.423Z,21.25
2022-10-17T08:45:17.906Z,21.23
2022-10-17T08:47:48.930Z,22.33
2022-10-17T08:50:55.202Z,21.45
2022-10-17T08:53:33.567Z,21.48
2022-10-17T08:56:11.916Z,20.48
2022-10-17T08:58:43.444Z,21.88
2022-10-17T09:01:30.000Z,20.35
2022-10-17T09:04:00.741Z,21.05
2022-10-17T09:06:40.325Z,20.50
2022-10-17T09:09:40.580Z,21.75
2022-10-17T09:12:17.149Z,21.75
2022-10-17T09:15:04.408Z,20.15
2022-10-17T09:17:49.881Z,21.95
2022-10-17T09:20:45.238Z,22.08
2022-10-17T09:23:25.504Z,22.10
2022-10-17T09:25:56.334Z,21.63
2022-10-17T09:28:30.121Z,21.85
2022-10-17T09:31:19.337Z,23.67
2022-10-17T09:33:54.194Z,24.27
2022-10-17T09:36:30.263Z,22.92
2022-10-17T09:39:02.165Z,21.80
2022-10-17T09:41:46.134Z,21.98
2022-10-17T09:44:20.363Z,22.15
2022-10-17T09:49:32.368Z,21.70
2022-10-17T09:52:02.302Z,22.25
2022-10-17T09:54:41.331Z,22.40
2022-10-17T09:57:11.150Z,22.67
2022-10-17T09:59:42.598Z,21.23
2022-10-17T10:02:18.413Z,20.15
2022-10-17T10:05:10.821Z,21.60
2022-10-17T10:07:40.153Z,20.48
2022-10-17T10:10:26.268Z,21.40
2022-10-17T10:13:23.184Z,21.45
2022-10-17T10:15:51.775Z,21.88
2022-10-17T10:18:25.833Z,21.08
2022-10-17T10:21:24.683Z,21.40
2022-10-17T10:24:09.193Z,21.00
2022-10-17T10:26:50.695Z,21.05
2022-10-17T10:29:31.259Z,19.75
2022-10-17T10:32:09.464Z,19.88
2022-10-17T10:34:42.479Z,20.38
2022-10-17T10:37:22.985Z,19.80
2022-10-17T10:39:59.407Z,18.70
2022-10-17T10:42:37.803Z,19.75
2022-10-17T10:45:29.269Z,18.92
2022-10-17T10:48:17.027Z,18.52
2022-10-17T10:51:03.636Z,19.90
2022-10-17T10:53:41.248Z,18.20
2022-10-17T10:56:48.793Z,18.15
2022-10-17T10:59:44.064Z,18.33
2022-10-17T11:02:49.430Z,17.52
2022-10-17T11:05:42.682Z,17.88
2022-10-17T11:08:20.932Z,17.73
2022-10-17T11:11:02.741Z,17.85
2022-10-17T11:13:50.681Z,17.27
2022-10-17T11:16:47.181Z,16.73
2022-10-17T11:19:17.832Z,16.45
2022-10-17T11:22:05.202Z,16.92
2022-10-17T11:24:39.651Z,15.52
2022-10-17T11:27:09.302Z,15.10
2022-10-17T11:29:39.549Z,16.48
2022-10-17T11:32:21.585Z,14.68
2022-10-17T11:34:53.818Z,15.85
2022-10-17T11:37:29.420Z,15.05
2022-10-17T11:40:02.244Z,13.80
2022-10-17T11:42:48.804Z,13.80
2022-10-17T11:45:19.387Z,14.57
2022-10-17T11:48:01.640Z,13.95
2022-10-17T11:53:32.625Z,15.30
2022-10-17T11:56:02.279Z,14.40
2022-10-17T11:58:47.064Z,15.57
2022-10-17T12:01:33.408Z,14.50
2022-10-17T12:04:20.251Z,14.57
2022-10-17T12:06:54.653Z,14.48
2022-10-17T12:10:04.793Z,15.00
2022-10-17T12:12:35.466Z,14.77
2022-10-17T12:15:27.864Z,14.52
2022-10-17T12:17:57.421Z,13.95
2022-10-17T12:20:31.321Z,15.30
2022-10-17T12:23:11.849Z,15.02
2022-10-17T12:25:55.931Z,15.40
2022-10-17T12:28:32.006Z,15.02
2022-10-17T12:31:02.464Z,15.55
2022-10-17T12:33:49.419Z,14.70
2022-10-17T12:36:17.668Z,14.55
2022-10-17T12:38:49.870Z,15.40
2022-10-17T12:41:41.753Z,14.13
2022-10-17T12:44:16.776Z,14.23
2022-10-17T12:47:05.985Z,14.77
2022-10-17T12:49:42.606Z,14.73
2022-10-17T12:52:32.785Z,15.00
2022-10-17T12:55:13.097Z,14.38
2022-10-17T12:58:04.591Z,14.35
2022-10-17T13:00:49.800Z,15.35
2022-10-17T13:03:35.851Z,14.85
2022-10-17T13:06:07.233Z,15.38
2022-10-17T13:08:41.949Z,14.67
2022-10-17T13:11:10.701Z,14.50
2022-10-17T13:13:48.988Z,15.25
2022-10-17T13:16:37.113Z,13.95
2022-10-17T13:19:17.049Z,14.25
2022-10-17T13:22:06.488Z,15.23
2022-10-17T13:24:40.700Z,13.63
2022-10-17T13:27:28.550Z,15.75
2022-10-17T13:29:58.934Z,14.70
2022-10-17T13:32:36.913Z,14.75
2022-10-17T13:35:07.321Z,14.75
2022-10-17T13:37:36.515Z,14.88
2022-10-17T13:40:24.804Z,14.93
2022-10-17T13:42:56.020Z,14.82
2022-10-17T13:45:38.073Z,14.80
2022-10-17T13:48:11.071Z,13.90
2022-10-17T13:50:45.267Z,14.90
2022-10-17T13:53:17.576Z,15.05
2022-10-17T13:56:29.626Z,15.57
2022-10-17T13:59:01.111Z,15.70
2022-10-17T14:01:30.132Z,15.57
2022-10-17T14:04:20.112Z,15.60
2022-10-17T14:06:51.164Z,14.95
2022-10-17T14:09:30.794Z,16.03
2022-10-17T14:12:07.439Z,14.45
2022-10-17T14:14:51.967Z,14.85
2022-10-17T14:17:27.760Z,15.57
2022-10-17T14:20:29.698Z,15.25
2022-10-17T14:25:42.009Z,14.73
2022-10-17T14:28:15.353Z,14.77
2022-10-17T14:30:56.915Z,14.65
2022-10-17T14:33:29.610Z,14.95
2022-10-17T14:35:59.418Z,15.07
2022-10-17T14:38:30.632Z,14.70
2022-10-17T14:44:35.353Z,15.15
2022-10-17T14:47:30.914Z,14.52
2022-10-17T14:50:18.024Z,16.02
2022-10-17T14:53:03.441Z,15.05
2022-10-17T14:55:34.548Z,16.42
2022-10-17T14:58:02.693Z,15.85
2022-10-17T15:00:31.246Z,16.10
2022-10-17T15:03:00.162Z,15.75
2022-10-17T15:05:28.883Z,16.13
2022-10-17T15:07:56.819Z,16.05
2022-10-17T15:10:29.440Z,16.60
2022-10-17T15:13:04.628Z,16.95
2022-10-17T15:15:45.285Z,16.52
2022-10-17T15:18:14.913Z,18.33
2022-10-17T15:20:43.418Z,17.83
2022-10-17T15:23:11.189Z,17.02
2022-10-17T15:25:39.859Z,17.98
2022-10-17T15:28:09.416Z,17.83
2022-10-17T15:30:38.119Z,17.50
2022-10-17T15:33:06.719Z,18.27
2022-10-17T15:35:36.477Z,18.25
2022-10-17T15:38:07.358Z,17.77
2022-10-17T15:40:35.739Z,18.67
2022-10-17T15:43:03.638Z,20.08
2022-10-17T15:45:34.276Z,20.13
2022-10-17T15:48:06.898Z,19.83
2022-10-17T15:50:35.515Z,20.92
2022-10-17T15:53:06.198Z,19.15
2022-10-17T15:55:35.925Z,18.38
2022-10-17T15:58:03.704Z,18.20
2022-10-17T16:00:32.225Z,19.00
2022-10-17T16:03:01.014Z,19.70
2022-10-17T16:05:29.867Z,19.45
2022-10-17T16:07:58.591Z,19.35
2022-10-17T16:10:26.950Z,18.17
2022-10-17T16:12:55.727Z,18.90
2022-10-17T16:15:28.406Z,20.27
2022-10-17T16:17:57.905Z,19.13
2022-10-17T16:20:27.949Z,20.30
2022-10-17T16:23:00.454Z,20.67
2022-10-17T16:25:30.659Z,18.80
2022-10-17T16:28:00.842Z,18.48
2022-10-17T16:30:30.749Z,20.20
2022-10-17T16:32:58.640Z,19.00
2022-10-17T16:35:33.217Z,22.08
2022-10-17T16:38:06.115Z,21.80
2022-10-17T16:40:34.447Z,20.88
2022-10-17T16:43:02.309Z,19.40
2022-10-17T16:45:31.004Z,20.40
2022-10-17T16:48:00.142Z,20.38
2022-10-17T16:50:29.057Z,19.58
2022-10-17T16:52:56.919Z,19.35
2022-10-17T16:55:26.294Z,21.15
2022-10-17T16:57:54.393Z,21.77
2022-10-17T17:00:23.141Z,20.58
2022-10-17T17:02:51.425Z,20.05
2022-10-17T17:05:19.741Z,19.33
2022-10-17T17:07:48.386Z,19.77
2022-10-17T17:10:17.152Z,20.77
2022-10-17T17:12:45.431Z,20.83
2022-10-17T17:15:14.030Z,19.77
2022-10-17T17:17:50.586Z,20.90
2022-10-17T17:20:22.272Z,20.17
2022-10-17T17:22:51.079Z,20.77
2022-10-17T17:25:19.645Z,20.20
2022-10-17T17:27:47.931Z,20.00
2022-10-17T17:30:16.096Z,19.98
2022-10-17T17:32:44.516Z,20.98
2022-10-17T17:35:13.540Z,20.50
2022-10-17T17:37:41.970Z,21.05
2022-10-17T17:40:10.861Z,19.70
2022-10-17T17:42:39.398Z,21.25
2022-10-17T17:45:08.191Z,21.00
2022-10-17T17:47:36.718Z,19.73
2022-10-17T17:50:05.461Z,19.63
2022-10-17T17:52:33.573Z,21.38
2022-10-17T17:55:01.803Z,19.67
2022-10-17T17:57:30.563Z,21.52
2022-10-17T17:59:59.134Z,21.27
2022-10-17T18:02:27.196Z,20.45
2022-10-17T18:04:55.601Z,20.45
2022-10-17T18:07:24.265Z,20.52
2022-10-17T18:09:52.980Z,20.38
2022-10-17T18:12:21.268Z,21.48
2022-10-17T18:14:49.305Z,21.20
2022-10-17T18:17:17.161Z,20.08
2022-10-17T18:19:45.344Z,21.23
2022-10-17T18:22:13.406Z,20.95
2022-10-17T18:24:42.079Z,20.10
2022-10-17T18:27:10.130Z,19.88
2022-10-17T18:29:38.528Z,19.90
2022-10-17T18:32:06.725Z,19.70
2022-10-17T18:34:35.696Z,19.88
2022-10-17T18:37:03.836Z,19.80
2022-10-17T18:39:32.153Z,21.42
2022-10-17T18:41:59.926Z,21.08
2022-10-17T18:44:28.719Z,21.27
2022-10-17T18:46:58.638Z,20.52
2022-10-17T18:49:30.044Z,20.45
2022-10-17T18:51:58.107Z,19.88
2022-10-17T18:54:26.774Z,19.52
2022-10-17T18:56:56.116Z,19.90
2022-10-17T18:59:24.104Z,20.20
2022-10-17T19:01:52.590Z,20.42
2022-10-17T19:04:21.109Z,19.92
2022-10-17T19:06:48.959Z,18.50
2022-10-17T19:09:17.542Z,26.48
2022-10-17T19:11:45.358Z,20.95
2022-10-17T19:14:14.029Z,19.17
2022-10-17T19:16:48.060Z,19.58
2022-10-17T19:19:21.481Z,19.92
2022-10-17T19:21:50.857Z,21.75
2022-10-17T19:24:23.037Z,19.15
2022-10-17T19:26:53.983Z,19.52
2022-10-17T19:29:23.916Z,20.88
2022-10-17T19:31:52.205Z,18.75
2022-10-17T19:34:20.630Z,18.25
2022-10-17T19:36:49.090Z,19.08
2022-10-17T19:39:19.823Z,18.98
2022-10-17T19:41:48.495Z,18.85
2022-10-17T19:44:17.109Z,19.30
2022-10-17T19:46:47.048Z,18.55
2022-10-17T19:49:16.079Z,16.67
2022-10-17T19:51:44.471Z,18.88
2022-10-17T19:54:13.969Z,17.52
2022-10-17T19:56:43.928Z,18.05
2022-10-17T19:59:14.910Z,18.45
2022-10-17T20:01:43.600Z,19.30
2022-10-17T20:04:13.033Z,19.45
2022-10-17T20:06:41.421Z,18.75
2022-10-17T20:09:15.633Z,17.75
2022-10-17T20:11:45.211Z,18.67
2022-10-17T20:14:13.929Z,18.67
2022-10-17T20:16:44.893Z,18.25
2022-10-17T20:19:14.351Z,18.33
2022-10-17T20:21:44.057Z,18.65
2022-10-17T20:24:15.214Z,21.00
2022-10-17T20:26:44.416Z,21.98
2022-10-17T20:29:19.491Z,23.35
2022-10-17T20:31:48.561Z,20.60
2022-10-17T20:34:18.468Z,20.00
2022-10-17T20:36:47.424Z,20.23
2022-10-17T20:39:17.364Z,19.50
2022-10-17T20:41:46.630Z,20.33
2022-10-17T20:44:14.924Z,20.55
2022-10-17T20:47:00.807Z,19.88
2022-10-17T20:49:30.850Z,19.13
2022-10-17T20:51:59.567Z,19.67
2022-10-17T20:54:29.086Z,18.13
2022-10-17T20:56:59.929Z,18.77
2022-10-17T20:59:30.884Z,18.58
2022-10-17T21:01:59.294Z,18.92
2022-10-17T21:04:46.976Z,19.13
2022-10-17T21:07:15.396Z,18.70
2022-10-17T21:09:44.039Z,19.77
2022-10-17T21:12:15.216Z,19.77
2022-10-17T21:14:50.633Z,20.35
2022-10-17T21:17:18.774Z,19.45
2022-10-17T21:19:47.851Z,18.73
2022-10-17T21:22:15.772Z,20.40
2022-10-17T21:24:44.158Z,20.23
2022-10-17T21:27:17.431Z,21.15
2022-10-17T21:29:45.852Z,21.17
2022-10-17T21:32:25.196Z,22.58
2022-10-17T21:35:02.632Z,21.13
2022-10-17T21:37:30.477Z,21.63
2022-10-17T21:39:59.082Z,21.20
2022-10-17T21:42:27.126Z,20.95
2022-10-17T21:44:55.418Z,21.40
2022-10-17T21:47:27.533Z,19.48
2022-10-17T21:49:56.764Z,20.65
2022-10-17T21:52:24.768Z,20.27
2022-10-17T21:54:53.328Z,19.77
2022-10-17T21:57:21.900Z,21.15
2022-10-17T21:59:50.801Z,20.40
2022-10-17T22:02:19.606Z,19.50
2022-10-17T22:04:48.509Z,20.23
2022-10-17T22:07:16.216Z,20.63
2022-10-17T22:09:44.514Z,19.98
2022-10-17T22:12:12.383Z,20.25
2022-10-17T22:14:40.815Z,20.05
2022-10-17T22:17:08.814Z,20.48
2022-10-17T22:19:37.419Z,19.80
2022-10-17T22:22:05.324Z,19.55
2022-10-17T22:24:33.983Z,19.65
2022-10-17T22:27:01.857Z,19.38
2022-10-17T22:29:30.448Z,18.10
2022-10-17T22:31:58.663Z,19.83
2022-10-17T22:34:26.979Z,18.73
2022-10-17T22:36:55.308Z,18.02
2022-10-17T22:39:23.439Z,18.48
2022-10-17T22:41:51.955Z,18.40
2022-10-17T22:44:22.270Z,17.23
2022-10-17T22:46:52.429Z,18.90
2022-10-17T22:49:20.849Z,17.48
2022-10-17T22:51:49.259Z,18.10
2022-10-17T22:54:18.013Z,19.65
2022-10-17T22:56:46.033Z,18.27
2022-10-17T22:59:14.026Z,17.50
2022-10-17T23:01:41.859Z,17.48
2022-10-17T23:04:10.124Z,16.50
2022-10-17T23:06:38.261Z,16.77
2022-10-17T23:09:06.548Z,17.75
2022-10-17T23:11:34.670Z,16.85
2022-10-17T23:14:02.573Z,16.27
2022-10-17T23:16:30.589Z,16.15
2022-10-17T23:18:59.000Z,16.13
2022-10-17T23:21:26.943Z,16.70
2022-10-17T23:23:56.220Z,16.38
2022-10-17T23:26:23.743Z,16.55
2022-10-17T23:28:54.881Z,16.15
2022-10-17T23:31:23.067Z,16.33
2022-10-17T23:33:51.229Z,15.38
2022-10-17T23:36:22.017Z,16.35
2022-10-17T23:38:52.695Z,16.30
2022-10-17T23:41:23.353Z,16.08
2022-10-17T23:43:51.821Z,15.20
2022-10-17T23:46:19.562Z,14.93
2022-10-17T23:48:48.223Z,14.13
2022-10-17T23:51:16.238Z,15.27
2022-10-17T23:53:44.911Z,14.93
2022-10-17T23:56:12.736Z,15.88
2022-10-17T23:58:41.863Z,15.07
